createdAt,value
2023-04-08T00:00:30.878Z,16.47
2023-04-08T00:02:57.823Z,16.80
2023-04-08T00:05:24.985Z,14.63
2023-04-08T00:07:51.759Z,14.80
2023-04-08T00:10:18.732Z,14.80
2023-04-08T00:12:47.203Z,16.03
2023-04-08T00:15:14.083Z,14.40
2023-04-08T00:17:41.744Z,14.93
2023-04-08T00:20:09.250Z,14.73
2023-04-08T00:22:36.673Z,15.33
2023-04-08T00:25:06.581Z,15.23
2023-04-08T00:27:33.831Z,14.23
2023-04-08T00:30:01.749Z,15.23
2023-04-08T00:32:29.199Z,15.03
2023-04-08T00:34:56.485Z,13.60
2023-04-08T00:37:25.020Z,14.20
2023-04-08T00:39:54.158Z,13.97
2023-04-08T00:42:22.240Z,14.40
2023-04-08T00:44:49.352Z,14.93
2023-04-08T00:47:16.709Z,12.70
2023-04-08T00:49:44.472Z,15.33
2023-04-08T00:52:12.319Z,15.63
2023-04-08T00:54:39.186Z,20.10
2023-04-08T00:57:09.246Z,19.10
2023-04-08T00:59:36.563Z,19.10
2023-04-08T01:02:58.917Z,19.03
2023-04-08T01:05:54.876Z,19.47
2023-04-08T01:08:23.291Z,18.47
2023-04-08T01:10:53.122Z,20.20
2023-04-08T01:13:23.710Z,19.60
2023-04-08T01:15:50.737Z,17.97
2023-04-08T01:18:18.714Z,18.60
2023-04-08T01:20:46.750Z,18.13
2023-04-08T01:23:31.105Z,19.87
2023-04-08T01:25:58.633Z,16.17
2023-04-08T01:28:29.679Z,17.07
2023-04-08T01:30:59.420Z,17.53
2023-04-08T01:33:28.650Z,16.97
2023-04-08T01:35:57.805Z,17.47
2023-04-08T01:38:26.657Z,15.77
2023-04-08T01:40:55.678Z,18.27
2023-04-08T01:43:24.404Z,17.37
2023-04-08T01:45:54.610Z,18.13
2023-04-08T01:48:22.662Z,18.63
2023-04-08T01:50:51.331Z,18.70
2023-04-08T01:53:18.645Z,19.00
2023-04-08T01:55:46.018Z,18.03
2023-04-08T01:58:19.907Z,17.83
2023-04-08T02:00:47.342Z,17.50
2023-04-08T02:03:17.657Z,19.47
2023-04-08T02:05:44.841Z,17.30
2023-04-08T02:08:13.054Z,17.03
2023-04-08T02:10:40.797Z,18.60
2023-04-08T02:13:08.361Z,18.93
2023-04-08T02:15:38.219Z,17.40
2023-04-08T02:18:17.192Z,20.23
2023-04-08T02:20:50.371Z,18.57
2023-04-08T02:23:22.499Z,23.20
2023-04-08T02:25:50.654Z,20.03
2023-04-08T02:28:19.723Z,18.70
2023-04-08T02:30:52.185Z,19.60
2023-04-08T02:33:22.205Z,20.60
2023-04-08T02:35:51.483Z,19.50
2023-04-08T02:38:18.542Z,17.77
2023-04-08T02:40:45.646Z,18.23
2023-04-08T02:43:12.446Z,19.93
2023-04-08T02:45:42.134Z,21.10
2023-04-08T02:48:09.918Z,20.73
2023-04-08T02:50:37.244Z,17.87
2023-04-08T02:53:04.236Z,17.83
2023-04-08T02:55:31.062Z,18.80
2023-04-08T02:57:57.862Z,21.03
2023-04-08T03:00:24.637Z,21.43
2023-04-08T03:02:51.778Z,21.10
2023-04-08T03:05:19.096Z,20.13
2023-04-08T03:07:46.187Z,19.37
2023-04-08T03:10:13.010Z,19.20
2023-04-08T03:12:39.803Z,19.17
2023-04-08T03:15:07.398Z,18.70
2023-04-08T03:17:34.765Z,18.73
2023-04-08T03:20:04.844Z,19.70
2023-04-08T03:22:31.996Z,18.97
2023-04-08T03:24:58.879Z,19.33
2023-04-08T03:27:26.334Z,18.33
2023-04-08T03:29:53.984Z,20.50
2023-04-08T03:32:21.188Z,18.73
2023-04-08T03:34:49.723Z,18.60
2023-04-08T03:37:17.509Z,22.20
2023-04-08T03:39:44.419Z,20.00
2023-04-08T03:42:11.404Z,20.17
2023-04-08T03:44:38.378Z,21.27
2023-04-08T03:47:05.231Z,20.13
2023-04-08T03:49:32.085Z,20.13
2023-04-08T03:51:58.983Z,21.30
2023-04-08T03:54:25.739Z,19.03
2023-04-08T03:56:52.600Z,20.00
2023-04-08T03:59:19.724Z,19.50
2023-04-08T04:01:47.577Z,18.73
2023-04-08T04:04:14.899Z,19.53
2023-04-08T04:06:41.961Z,19.67
2023-04-08T04:09:09.077Z,20.87
2023-04-08T04:11:35.934Z,21.00
2023-04-08T04:14:02.826Z,19.97
2023-04-08T04:16:32.820Z,21.83
2023-04-08T04:19:00.382Z,21.73
2023-04-08T04:21:27.467Z,21.73
2023-04-08T04:23:54.333Z,23.77
2023-04-08T04:26:21.248Z,21.17
2023-04-08T04:28:48.641Z,20.73
2023-04-08T04:31:21.804Z,21.97
2023-04-08T04:33:49.235Z,22.00
2023-04-08T04:36:16.212Z,21.77
2023-04-08T04:38:44.073Z,23.37
2023-04-08T04:41:12.238Z,25.67
2023-04-08T04:43:39.176Z,26.43
2023-04-08T04:46:08.886Z,24.67
2023-04-08T04:48:36.497Z,25.63
2023-04-08T04:51:03.715Z,28.30
2023-04-08T04:53:31.601Z,30.70
2023-04-08T04:56:01.258Z,30.80
2023-04-08T04:58:28.725Z,29.90
2023-04-08T05:00:56.428Z,29.50
2023-04-08T05:03:23.609Z,28.50
2023-04-08T05:05:54.727Z,25.87
2023-04-08T05:08:22.184Z,24.57
2023-04-08T05:10:50.812Z,22.07
2023-04-08T05:13:18.757Z,20.73
2023-04-08T05:15:46.011Z,21.93
2023-04-08T05:18:13.614Z,20.47
2023-04-08T05:20:40.586Z,22.17
2023-04-08T05:23:08.914Z,21.93
2023-04-08T05:25:36.199Z,20.43
2023-04-08T05:28:03.966Z,19.47
2023-04-08T05:30:32.923Z,20.23
2023-04-08T05:33:00.807Z,19.47
2023-04-08T05:35:28.723Z,18.97
2023-04-08T05:37:55.683Z,19.53
2023-04-08T05:40:22.771Z,19.07
2023-04-08T05:42:49.692Z,19.37
2023-04-08T05:45:16.712Z,18.80
2023-04-08T05:47:43.609Z,18.47
2023-04-08T05:50:11.469Z,17.33
2023-04-08T05:52:43.703Z,16.90
2023-04-08T05:55:11.432Z,16.83
2023-04-08T05:57:38.418Z,16.60
2023-04-08T06:00:07.084Z,16.00
2023-04-08T06:02:35.004Z,16.23
2023-04-08T06:05:03.820Z,17.13
2023-04-08T06:07:32.021Z,16.17
2023-04-08T06:09:58.946Z,14.93
2023-04-08T06:12:25.756Z,16.57
2023-04-08T06:14:56.280Z,16.77
2023-04-08T06:17:23.247Z,14.87
2023-04-08T06:19:50.459Z,13.87
2023-04-08T06:22:17.505Z,14.07
2023-04-08T06:24:44.794Z,14.20
2023-04-08T06:27:11.781Z,13.33
2023-04-08T06:29:39.699Z,12.33
2023-04-08T06:32:07.627Z,11.63
2023-04-08T06:34:34.524Z,11.70
2023-04-08T06:37:01.586Z,10.90
2023-04-08T06:39:28.554Z,10.67
2023-04-08T06:41:55.352Z,11.20
2023-04-08T06:44:22.218Z,10.83
2023-04-08T06:46:49.076Z,9.40
2023-04-08T06:49:15.936Z,9.33
2023-04-08T06:51:42.796Z,10.00
2023-04-08T06:54:10.209Z,10.13
2023-04-08T06:56:37.593Z,11.50
2023-04-08T06:59:05.701Z,11.30
2023-04-08T07:01:32.676Z,10.70
2023-04-08T07:03:59.863Z,10.37
2023-04-08T07:06:26.902Z,9.93
2023-04-08T07:08:53.775Z,8.70
2023-04-08T07:11:21.279Z,9.17
2023-04-08T07:13:48.027Z,8.93
2023-04-08T07:16:14.762Z,9.30
2023-04-08T07:18:42.625Z,8.90
2023-04-08T07:21:10.744Z,8.80
2023-04-08T07:23:37.574Z,8.63
2023-04-08T07:26:08.255Z,8.67
2023-04-08T07:28:35.256Z,8.40
2023-04-08T07:31:16.377Z,8.97
2023-04-08T07:33:44.540Z,7.73
2023-04-08T07:36:13.186Z,8.40
2023-04-08T07:38:40.892Z,8.37
2023-04-08T07:41:08.095Z,7.63
2023-04-08T07:43:37.286Z,7.93
2023-04-08T07:46:08.018Z,7.07
2023-04-08T07:48:35.482Z,6.87
2023-04-08T07:51:08.030Z,8.40
2023-04-08T07:53:38.021Z,8.90
2023-04-08T07:56:11.889Z,7.33
2023-04-08T07:58:40.471Z,7.90
2023-04-08T08:01:18.853Z,7.70
2023-04-08T08:03:47.635Z,8.07
2023-04-08T08:06:15.489Z,8.10
2023-04-08T08:08:42.568Z,7.60
2023-04-08T08:11:09.581Z,7.23
2023-04-08T08:13:36.561Z,7.60
2023-04-08T08:16:03.730Z,7.27
2023-04-08T08:18:30.791Z,7.73
2023-04-08T08:20:57.513Z,7.47
2023-04-08T08:23:24.413Z,7.47
2023-04-08T08:26:03.054Z,7.43
2023-04-08T08:28:30.135Z,7.70
2023-04-08T08:30:57.332Z,7.47
2023-04-08T08:33:25.392Z,7.20
2023-04-08T08:35:52.583Z,7.77
2023-04-08T08:38:19.779Z,6.87
2023-04-08T08:40:46.889Z,8.10
2023-04-08T08:43:14.355Z,7.40
2023-04-08T08:45:42.276Z,7.30
2023-04-08T08:48:09.639Z,7.57
2023-04-08T08:50:37.686Z,8.00
2023-04-08T08:53:04.751Z,7.07
2023-04-08T08:55:50.755Z,7.07
2023-04-08T08:58:20.780Z,7.83
2023-04-08T09:00:47.894Z,7.57
2023-04-08T09:03:27.912Z,7.60
2023-04-08T09:05:59.850Z,8.57
2023-04-08T09:08:34.024Z,8.60
2023-04-08T09:11:18.017Z,8.90
2023-04-08T09:13:46.295Z,8.47
2023-04-08T09:16:16.747Z,10.33
2023-04-08T09:18:49.053Z,8.13
2023-04-08T09:21:17.858Z,9.67
2023-04-08T09:23:46.867Z,8.60
2023-04-08T09:26:14.941Z,8.07
2023-04-08T09:28:43.356Z,8.50
2023-04-08T09:31:27.730Z,8.53
2023-04-08T09:34:00.176Z,8.60
2023-04-08T09:36:28.689Z,9.60
2023-04-08T09:38:56.741Z,8.97
2023-04-08T09:41:24.909Z,8.77
2023-04-08T09:43:55.729Z,8.83
2023-04-08T09:46:46.392Z,8.40
2023-04-08T09:49:18.889Z,8.70
2023-04-08T09:52:00.913Z,8.77
2023-04-08T09:54:44.068Z,8.10
2023-04-08T09:57:14.286Z,8.40
2023-04-08T09:59:49.086Z,8.57
2023-04-08T10:02:20.126Z,9.63
2023-04-08T10:04:50.823Z,9.03
2023-04-08T10:07:19.272Z,8.50
2023-04-08T10:09:46.511Z,9.30
2023-04-08T10:12:14.067Z,9.27
2023-04-08T10:14:41.027Z,8.70
2023-04-08T10:17:36.057Z,8.95
2023-04-08T10:20:03.274Z,8.50
2023-04-08T10:22:32.912Z,9.43
2023-04-08T10:25:18.702Z,8.60
2023-04-08T10:27:45.852Z,9.33
2023-04-08T10:30:27.810Z,8.97
2023-04-08T10:32:56.932Z,7.88
2023-04-08T10:35:30.535Z,9.03
2023-04-08T10:37:59.165Z,7.90
2023-04-08T10:40:27.425Z,8.93
2023-04-08T10:43:00.662Z,9.03
2023-04-08T10:45:28.721Z,7.88
2023-04-08T10:47:55.717Z,7.60
2023-04-08T10:50:25.373Z,8.43
2023-04-08T10:52:54.029Z,7.47
2023-04-08T10:55:24.801Z,8.30
2023-04-08T10:57:52.001Z,8.17
2023-04-08T11:00:20.164Z,7.45
2023-04-08T11:02:47.458Z,8.10
2023-04-08T11:05:14.310Z,7.30
2023-04-08T11:07:44.425Z,6.50
2023-04-08T11:10:11.724Z,7.90
2023-04-08T11:12:38.801Z,7.73
2023-04-08T11:15:06.242Z,7.55
2023-04-08T11:17:35.025Z,7.43
2023-04-08T11:20:06.257Z,7.60
2023-04-08T11:22:34.617Z,8.30
2023-04-08T11:25:02.669Z,7.80
2023-04-08T11:27:30.069Z,6.88
2023-04-08T11:29:57.364Z,6.82
2023-04-08T11:32:25.074Z,6.80
2023-04-08T11:34:53.459Z,7.35
2023-04-08T11:37:20.773Z,8.07
2023-04-08T11:39:47.554Z,7.93
2023-04-08T11:42:31.239Z,6.85
2023-04-08T11:44:58.627Z,7.15
2023-04-08T11:47:35.200Z,7.07
2023-04-08T11:50:02.689Z,7.25
2023-04-08T11:52:49.649Z,6.78
2023-04-08T11:55:27.616Z,6.03
2023-04-08T11:57:55.785Z,6.53
2023-04-08T12:00:23.492Z,6.40
2023-04-08T12:02:51.933Z,6.65
2023-04-08T12:05:19.007Z,7.70
2023-04-08T12:07:45.876Z,8.32
2023-04-08T12:10:13.696Z,8.02
2023-04-08T12:12:41.040Z,7.68
2023-04-08T12:15:08.656Z,9.60
2023-04-08T12:17:36.186Z,8.48
2023-04-08T12:20:04.303Z,8.50
2023-04-08T12:22:31.375Z,8.45
2023-04-08T12:24:59.352Z,9.18
2023-04-08T12:27:26.438Z,7.95
2023-04-08T12:29:53.525Z,7.25
2023-04-08T12:32:20.695Z,8.30
2023-04-08T12:34:47.617Z,8.10
2023-04-08T12:37:14.552Z,7.85
2023-04-08T12:39:42.022Z,7.28
2023-04-08T12:42:09.080Z,8.38
2023-04-08T12:44:36.057Z,7.30
2023-04-08T12:47:02.837Z,7.07
2023-04-08T12:49:30.795Z,6.78
2023-04-08T12:51:59.253Z,6.88
2023-04-08T12:54:26.190Z,6.10
2023-04-08T12:56:52.974Z,6.82
2023-04-08T12:59:19.805Z,6.88
2023-04-08T13:01:47.269Z,6.88
2023-04-08T13:04:14.114Z,7.18
2023-04-08T13:06:41.078Z,7.32
2023-04-08T13:09:08.074Z,7.13
2023-04-08T13:11:34.905Z,6.97
2023-04-08T13:14:02.192Z,6.30
2023-04-08T13:16:28.903Z,6.72
2023-04-08T13:18:55.844Z,6.38
2023-04-08T13:21:22.737Z,5.93
2023-04-08T13:23:49.722Z,6.25
2023-04-08T13:26:16.694Z,5.82
2023-04-08T13:28:55.909Z,5.65
2023-04-08T13:31:24.849Z,5.57
2023-04-08T13:33:51.667Z,5.38
2023-04-08T13:36:18.766Z,5.05
2023-04-08T13:38:46.229Z,5.88
2023-04-08T13:41:13.128Z,5.70
2023-04-08T13:43:39.970Z,6.20
2023-04-08T13:46:06.961Z,6.10
2023-04-08T13:48:33.954Z,6.03
2023-04-08T13:51:00.804Z,5.60
2023-04-08T13:53:27.752Z,5.40
2023-04-08T13:55:55.994Z,6.43
2023-04-08T13:58:24.452Z,6.10
2023-04-08T14:00:52.096Z,5.22
2023-04-08T14:03:19.549Z,4.55
2023-04-08T14:05:46.640Z,5.55
2023-04-08T14:08:13.937Z,5.55
2023-04-08T14:10:42.351Z,5.32
2023-04-08T14:13:09.730Z,4.57
2023-04-08T14:15:36.627Z,5.28
2023-04-08T14:18:03.779Z,5.03
2023-04-08T14:20:31.308Z,4.95
2023-04-08T14:22:58.345Z,4.88
2023-04-08T14:25:25.837Z,5.43
2023-04-08T14:27:58.384Z,5.57
2023-04-08T14:30:27.249Z,6.22
2023-04-08T14:32:54.735Z,7.13
2023-04-08T14:35:21.843Z,6.78
2023-04-08T14:37:48.767Z,5.50
2023-04-08T14:40:15.587Z,5.47
2023-04-08T14:42:42.662Z,5.22
2023-04-08T14:45:10.327Z,5.97
2023-04-08T14:47:37.232Z,5.55
2023-04-08T14:50:04.245Z,6.15
2023-04-08T14:52:31.139Z,5.82
2023-04-08T14:54:58.024Z,5.43
2023-04-08T14:57:24.789Z,5.38
2023-04-08T14:59:52.380Z,5.20
2023-04-08T15:02:19.339Z,5.20
2023-04-08T15:04:46.203Z,5.35
2023-04-08T15:07:13.240Z,5.65
2023-04-08T15:09:40.020Z,5.22
2023-04-08T15:12:06.779Z,5.57
2023-04-08T15:14:33.469Z,5.57
2023-04-08T15:17:00.550Z,5.57
2023-04-08T15:19:27.293Z,5.45
2023-04-08T15:21:54.026Z,5.45
2023-04-08T15:24:21.007Z,5.53
2023-04-08T15:26:47.718Z,5.22
2023-04-08T15:29:14.449Z,5.85
2023-04-08T15:31:41.541Z,4.88
2023-04-08T15:34:08.327Z,4.80
2023-04-08T15:36:37.366Z,5.75
2023-04-08T15:39:04.362Z,5.95
2023-04-08T15:41:32.415Z,5.78
2023-04-08T15:43:59.263Z,5.90
2023-04-08T15:46:26.324Z,6.10
2023-04-08T15:48:53.388Z,5.65
2023-04-08T15:51:20.957Z,6.68
2023-04-08T15:53:47.731Z,6.32
2023-04-08T15:56:16.347Z,6.03
2023-04-08T15:58:44.163Z,6.20
2023-04-08T16:01:11.253Z,5.85
2023-04-08T16:03:38.777Z,5.90
2023-04-08T16:06:08.771Z,7.35
2023-04-08T16:08:35.920Z,6.00
2023-04-08T16:11:04.455Z,6.50
2023-04-08T16:13:31.990Z,6.43
2023-04-08T16:16:01.657Z,6.78
2023-04-08T16:18:29.239Z,6.55
2023-04-08T16:20:56.894Z,6.15
2023-04-08T16:23:24.887Z,6.68
2023-04-08T16:25:52.025Z,7.23
2023-04-08T16:28:18.897Z,7.15
2023-04-08T16:30:47.754Z,6.85
2023-04-08T16:33:14.979Z,7.28
2023-04-08T16:35:41.814Z,7.78
2023-04-08T16:38:08.652Z,7.30
2023-04-08T16:40:35.565Z,7.55
2023-04-08T16:43:04.215Z,7.55
2023-04-08T16:45:32.663Z,8.07
2023-04-08T16:48:00.564Z,8.48
2023-04-08T16:50:28.407Z,8.68
2023-04-08T16:52:55.725Z,9.97
2023-04-08T16:55:23.023Z,9.20
2023-04-08T16:57:49.871Z,11.05
2023-04-08T17:00:18.701Z,10.73
2023-04-08T17:02:47.835Z,12.63
2023-04-08T17:05:15.191Z,13.90
2023-04-08T17:07:42.080Z,12.33
2023-04-08T17:10:09.357Z,12.27
2023-04-08T17:12:36.388Z,11.43
2023-04-08T17:15:03.734Z,11.10
2023-04-08T17:17:30.854Z,11.07
2023-04-08T17:19:58.234Z,10.07
2023-04-08T17:22:25.200Z,10.80
2023-04-08T17:24:51.947Z,10.98
2023-04-08T17:27:18.985Z,11.88
2023-04-08T17:29:45.993Z,11.55
2023-04-08T17:32:13.468Z,14.10
2023-04-08T17:34:40.998Z,13.05
2023-04-08T17:37:10.144Z,12.10
2023-04-08T17:39:40.810Z,11.43
2023-04-08T17:42:08.342Z,13.07
2023-04-08T17:44:36.295Z,12.90
2023-04-08T17:47:03.741Z,13.40
2023-04-08T17:49:30.501Z,12.57
2023-04-08T17:51:57.724Z,13.03
2023-04-08T17:54:25.002Z,13.25
2023-04-08T17:56:51.898Z,11.80
2023-04-08T17:59:18.719Z,12.67
2023-04-08T18:01:45.649Z,13.30
2023-04-08T18:04:13.790Z,13.50
2023-04-08T18:06:40.753Z,10.03
2023-04-08T18:09:07.464Z,9.35
2023-04-08T18:11:34.182Z,10.43
2023-04-08T18:14:00.909Z,9.73
2023-04-08T18:16:27.730Z,11.60
2023-04-08T18:18:54.546Z,13.00
2023-04-08T18:21:22.169Z,13.27
2023-04-08T18:23:50.047Z,10.87
2023-04-08T18:26:17.248Z,11.77
2023-04-08T18:28:44.289Z,10.17
2023-04-08T18:31:11.169Z,9.30
2023-04-08T18:33:39.175Z,9.13
2023-04-08T18:36:10.593Z,9.17
2023-04-08T18:38:38.100Z,9.13
2023-04-08T18:41:04.974Z,9.03
2023-04-08T18:43:32.589Z,8.30
2023-04-08T18:45:59.952Z,7.47
2023-04-08T18:48:26.787Z,7.73
2023-04-08T18:50:53.591Z,7.63
2023-04-08T18:53:20.322Z,8.20
2023-04-08T18:55:47.042Z,8.10
2023-04-08T18:58:14.017Z,8.90
2023-04-08T19:00:41.953Z,10.23
2023-04-08T19:03:10.395Z,8.10
2023-04-08T19:05:37.663Z,7.40
2023-04-08T19:08:05.095Z,7.50
2023-04-08T19:10:32.847Z,7.40
2023-04-08T19:13:00.087Z,8.15
2023-04-08T19:15:28.671Z,8.90
2023-04-08T19:17:56.516Z,8.93
2023-04-08T19:20:23.525Z,8.80
2023-04-08T19:22:50.453Z,7.60
2023-04-08T19:25:17.650Z,7.47
2023-04-08T19:27:46.023Z,8.17
2023-04-08T19:30:13.387Z,8.53
2023-04-08T19:32:40.273Z,8.43
2023-04-08T19:35:07.764Z,8.47
2023-04-08T19:37:34.736Z,8.33
2023-04-08T19:40:01.628Z,8.93
2023-04-08T19:42:29.162Z,9.17
2023-04-08T19:44:56.217Z,9.80
2023-04-08T19:47:23.383Z,9.50
2023-04-08T19:49:50.096Z,9.30
2023-04-08T19:52:16.800Z,11.00
2023-04-08T19:54:43.816Z,8.77
2023-04-08T19:57:11.601Z,10.13
2023-04-08T19:59:38.415Z,9.53
2023-04-08T20:02:05.973Z,9.70
2023-04-08T20:04:32.988Z,10.60
2023-04-08T20:07:03.621Z,11.43
2023-04-08T20:09:32.627Z,12.60
2023-04-08T20:12:06.443Z,11.07
2023-04-08T20:14:35.516Z,11.40
2023-04-08T20:17:02.671Z,10.47
2023-04-08T20:19:29.896Z,11.03
2023-04-08T20:21:57.416Z,11.47
2023-04-08T20:24:24.365Z,12.70
2023-04-08T20:26:52.502Z,12.17
2023-04-08T20:29:19.585Z,12.07
2023-04-08T20:31:46.892Z,12.20
2023-04-08T20:34:14.201Z,16.77
2023-04-08T20:36:41.321Z,15.77
2023-04-08T20:39:11.784Z,13.73
2023-04-08T20:41:38.722Z,26.47
2023-04-08T20:44:07.036Z,14.83
2023-04-08T20:46:35.191Z,15.23
2023-04-08T20:49:03.626Z,12.13
2023-04-08T20:51:32.512Z,22.87
2023-04-08T20:53:59.936Z,27.17
2023-04-08T20:56:26.712Z,37.00
2023-04-08T20:58:54.162Z,30.33
2023-04-08T21:01:22.033Z,20.87
2023-04-08T21:03:49.300Z,19.57
2023-04-08T21:06:20.095Z,21.23
2023-04-08T21:08:47.698Z,20.47
2023-04-08T21:11:15.102Z,15.73
2023-04-08T21:13:42.448Z,17.87
2023-04-08T21:16:09.811Z,17.90
2023-04-08T21:18:39.089Z,13.60
2023-04-08T21:21:06.453Z,14.70
2023-04-08T21:23:33.246Z,14.27
2023-04-08T21:26:02.729Z,14.07
2023-04-08T21:28:30.389Z,15.17
2023-04-08T21:31:06.880Z,14.30
2023-04-08T21:33:33.809Z,13.40
2023-04-08T21:36:00.978Z,13.73
2023-04-08T21:38:27.791Z,13.23
2023-04-08T21:40:54.674Z,13.73
2023-04-08T21:43:21.943Z,12.20
2023-04-08T21:45:49.067Z,13.37
2023-04-08T21:48:15.832Z,11.77
2023-04-08T21:50:42.687Z,11.77
2023-04-08T21:53:09.496Z,12.23
2023-04-08T21:55:36.447Z,12.33
2023-04-08T21:58:03.445Z,12.00
2023-04-08T22:00:31.094Z,11.43
2023-04-08T22:02:57.979Z,11.30
2023-04-08T22:05:25.046Z,11.57
2023-04-08T22:07:51.931Z,11.33
2023-04-08T22:10:18.781Z,10.97
2023-04-08T22:12:45.964Z,9.73
2023-04-08T22:15:12.725Z,10.13
2023-04-08T22:17:39.526Z,11.17
2023-04-08T22:20:06.858Z,11.40
2023-04-08T22:22:33.696Z,12.00
2023-04-08T22:25:00.618Z,11.27
2023-04-08T22:27:28.557Z,11.50
2023-04-08T22:29:55.538Z,11.00
2023-04-08T22:32:22.283Z,11.40
2023-04-08T22:34:49.022Z,11.13
2023-04-08T22:37:16.251Z,12.77
2023-04-08T22:39:43.091Z,11.80
2023-04-08T22:42:09.944Z,12.53
2023-04-08T22:44:36.781Z,12.53
2023-04-08T22:47:03.689Z,15.03
2023-04-08T22:49:30.765Z,13.40
2023-04-08T22:51:57.708Z,14.13
2023-04-08T22:54:24.507Z,13.77
2023-04-08T22:56:51.392Z,14.57
2023-04-08T22:59:18.164Z,13.53
2023-04-08T23:01:45.580Z,12.87
2023-04-08T23:04:12.478Z,12.30
2023-04-08T23:06:39.370Z,13.43
2023-04-08T23:09:06.195Z,13.47
2023-04-08T23:11:33.017Z,14.93
2023-04-08T23:13:59.910Z,14.27
2023-04-08T23:16:27.276Z,14.13
2023-04-08T23:18:54.530Z,14.70
2023-04-08T23:21:21.608Z,15.07
2023-04-08T23:23:48.927Z,13.23
2023-04-08T23:26:21.843Z,13.80
2023-04-08T23:28:48.890Z,13.63
2023-04-08T23:31:15.859Z,13.37
2023-04-08T23:33:42.787Z,13.40
2023-04-08T23:36:11.228Z,14.17
2023-04-08T23:38:38.151Z,14.53
2023-04-08T23:41:06.167Z,13.63
2023-04-08T23:43:33.148Z,14.93
2023-04-08T23:46:00.303Z,14.77
2023-04-08T23:48:27.295Z,14.77
2023-04-08T23:50:55.189Z,14.23
2023-04-08T23:53:22.407Z,14.80
2023-04-08T23:55:49.362Z,14.57
2023-04-08T23:58:16.232Z,15.90
